sensor_id;sensor_type;location;lat;lon;timestamp;P1;durP1;ratioP1;P2;durP2;ratioP2
14181;SDS011;7171;50.936;6.764;2023-09-12T00:02:23;2.17;;;1.70;;
14181;SDS011;7171;50.936;6.764;2023-09-12T00:04:50;2.03;;;1.48;;
14181;SDS011;7171;50.936;6.764;2023-09-12T00:07:16;3.13;;;1.65;;
14181;SDS011;7171;50.936;6.764;2023-09-12T00:09:43;2.33;;;1.60;;
14181;SDS011;7171;50.936;6.764;2023-09-12T00:12:12;3.50;;;2.75;;
14181;SDS011;7171;50.936;6.764;2023-09-12T00:14:39;4.53;;;2.03;;
14181;SDS011;7171;50.936;6.764;2023-09-12T00:17:06;2.90;;;2.30;;
14181;SDS011;7171;50.936;6.764;2023-09-12T00:19:35;7.32;;;2.58;;
14181;SDS011;7171;50.936;6.764;2023-09-12T00:22:02;2.80;;;2.10;;
14181;SDS011;7171;50.936;6.764;2023-09-12T00:24:29;2.88;;;1.90;;
14181;SDS011;7171;50.936;6.764;2023-09-12T00:26:56;2.35;;;2.05;;
14181;SDS011;7171;50.936;6.764;2023-09-12T00:29:23;2.95;;;1.80;;
14181;SDS011;7171;50.936;6.764;2023-09-12T00:31:49;3.45;;;2.10;;
14181;SDS011;7171;50.936;6.764;2023-09-12T00:34:16;3.53;;;2.53;;
14181;SDS011;7171;50.936;6.764;2023-09-12T00:36:44;3.10;;;2.17;;
14181;SDS011;7171;50.936;6.764;2023-09-12T00:39:11;3.47;;;2.38;;
14181;SDS011;7171;50.936;6.764;2023-09-12T00:41:38;3.88;;;2.22;;
14181;SDS011;7171;50.936;6.764;2023-09-12T00:44:05;3.72;;;2.60;;
14181;SDS011;7171;50.936;6.764;2023-09-12T00:46:33;4.22;;;2.45;;
14181;SDS011;7171;50.936;6.764;2023-09-12T00:49:01;4.00;;;2.28;;
14181;SDS011;7171;50.936;6.764;2023-09-12T00:51:29;6.93;;;2.97;;
14181;SDS011;7171;50.936;6.764;2023-09-12T00:54:00;2.63;;;2.28;;
14181;SDS011;7171;50.936;6.764;2023-09-12T00:56:28;5.40;;;3.00;;
14181;SDS011;7171;50.936;6.764;2023-09-12T00:58:55;6.57;;;3.15;;
14181;SDS011;7171;50.936;6.764;2023-09-12T01:01:23;5.55;;;2.95;;
14181;SDS011;7171;50.936;6.764;2023-09-12T01:03:50;3.45;;;2.60;;
14181;SDS011;7171;50.936;6.764;2023-09-12T01:06:17;4.28;;;2.70;;
14181;SDS011;7171;50.936;6.764;2023-09-12T01:08:46;5.47;;;3.40;;
14181;SDS011;7171;50.936;6.764;2023-09-12T01:11:15;3.67;;;2.45;;
14181;SDS011;7171;50.936;6.764;2023-09-12T01:13:43;6.75;;;2.90;;
14181;SDS011;7171;50.936;6.764;2023-09-12T01:16:10;5.32;;;3.13;;
14181;SDS011;7171;50.936;6.764;2023-09-12T01:18:37;5.80;;;2.60;;
14181;SDS011;7171;50.936;6.764;2023-09-12T01:23:55;4.20;;;2.30;;
14181;SDS011;7171;50.936;6.764;2023-09-12T01:26:33;3.65;;;2.63;;
14181;SDS011;7171;50.936;6.764;2023-09-12T01:29:02;4.30;;;2.53;;
14181;SDS011;7171;50.936;6.764;2023-09-12T01:31:31;4.82;;;2.88;;
14181;SDS011;7171;50.936;6.764;2023-09-12T01:34:07;3.58;;;2.42;;
14181;SDS011;7171;50.936;6.764;2023-09-12T01:36:35;4.38;;;2.60;;
14181;SDS011;7171;50.936;6.764;2023-09-12T01:39:02;4.25;;;2.90;;
14181;SDS011;7171;50.936;6.764;2023-09-12T01:41:30;4.70;;;2.70;;
14181;SDS011;7171;50.936;6.764;2023-09-12T01:44:00;4.55;;;2.92;;
14181;SDS011;7171;50.936;6.764;2023-09-12T01:46:30;4.72;;;2.83;;
14181;SDS011;7171;50.936;6.764;2023-09-12T01:48:58;4.03;;;2.42;;
14181;SDS011;7171;50.936;6.764;2023-09-12T01:51:25;6.68;;;3.10;;
14181;SDS011;7171;50.936;6.764;2023-09-12T01:53:53;4.93;;;3.05;;
14181;SDS011;7171;50.936;6.764;2023-09-12T01:56:23;5.53;;;3.30;;
14181;SDS011;7171;50.936;6.764;2023-09-12T01:58:51;5.38;;;2.90;;
14181;SDS011;7171;50.936;6.764;2023-09-12T02:01:19;6.78;;;3.15;;
14181;SDS011;7171;50.936;6.764;2023-09-12T02:03:46;4.80;;;2.83;;
14181;SDS011;7171;50.936;6.764;2023-09-12T02:06:13;6.60;;;3.42;;
14181;SDS011;7171;50.936;6.764;2023-09-12T02:08:40;4.63;;;2.67;;
14181;SDS011;7171;50.936;6.764;2023-09-12T02:11:08;6.53;;;3.50;;
14181;SDS011;7171;50.936;6.764;2023-09-12T02:13:34;3.92;;;2.78;;
14181;SDS011;7171;50.936;6.764;2023-09-12T02:16:01;5.85;;;3.13;;
14181;SDS011;7171;50.936;6.764;2023-09-12T02:18:29;4.78;;;2.83;;
14181;SDS011;7171;50.936;6.764;2023-09-12T02:20:57;6.45;;;3.20;;
14181;SDS011;7171;50.936;6.764;2023-09-12T02:23:24;8.55;;;3.53;;
14181;SDS011;7171;50.936;6.764;2023-09-12T02:25:51;5.18;;;2.65;;
14181;SDS011;7171;50.936;6.764;2023-09-12T02:28:18;6.30;;;2.90;;
14181;SDS011;7171;50.936;6.764;2023-09-12T02:30:44;6.35;;;3.20;;
14181;SDS011;7171;50.936;6.764;2023-09-12T02:33:11;5.65;;;3.25;;
14181;SDS011;7171;50.936;6.764;2023-09-12T02:35:39;5.18;;;3.53;;
14181;SDS011;7171;50.936;6.764;2023-09-12T02:38:07;9.00;;;3.40;;
14181;SDS011;7171;50.936;6.764;2023-09-12T02:40:33;8.32;;;3.75;;
14181;SDS011;7171;50.936;6.764;2023-09-12T02:43:00;7.15;;;3.67;;
14181;SDS011;7171;50.936;6.764;2023-09-12T02:45:27;7.78;;;4.03;;
14181;SDS011;7171;50.936;6.764;2023-09-12T02:47:54;6.15;;;3.58;;
14181;SDS011;7171;50.936;6.764;2023-09-12T02:50:20;6.90;;;3.13;;
14181;SDS011;7171;50.936;6.764;2023-09-12T02:52:49;5.28;;;3.20;;
14181;SDS011;7171;50.936;6.764;2023-09-12T02:55:15;5.97;;;3.65;;
14181;SDS011;7171;50.936;6.764;2023-09-12T02:57:42;6.07;;;4.05;;
14181;SDS011;7171;50.936;6.764;2023-09-12T03:00:09;7.45;;;4.13;;
14181;SDS011;7171;50.936;6.764;2023-09-12T03:02:36;5.28;;;3.65;;
14181;SDS011;7171;50.936;6.764;2023-09-12T03:05:03;6.45;;;3.72;;
14181;SDS011;7171;50.936;6.764;2023-09-12T03:07:30;9.20;;;4.05;;
14181;SDS011;7171;50.936;6.764;2023-09-12T03:09:59;5.00;;;3.28;;
14181;SDS011;7171;50.936;6.764;2023-09-12T03:12:25;7.60;;;3.88;;
14181;SDS011;7171;50.936;6.764;2023-09-12T03:14:52;6.22;;;3.53;;
14181;SDS011;7171;50.936;6.764;2023-09-12T03:17:19;6.85;;;3.92;;
14181;SDS011;7171;50.936;6.764;2023-09-12T03:19:46;8.65;;;4.40;;
14181;SDS011;7171;50.936;6.764;2023-09-12T03:22:13;6.05;;;3.38;;
14181;SDS011;7171;50.936;6.764;2023-09-12T03:24:40;8.15;;;3.58;;
14181;SDS011;7171;50.936;6.764;2023-09-12T03:27:08;5.40;;;3.60;;
14181;SDS011;7171;50.936;6.764;2023-09-12T03:29:34;6.57;;;4.35;;
14181;SDS011;7171;50.936;6.764;2023-09-12T03:32:01;6.32;;;3.70;;
14181;SDS011;7171;50.936;6.764;2023-09-12T03:34:29;9.02;;;4.38;;
14181;SDS011;7171;50.936;6.764;2023-09-12T03:36:55;5.10;;;3.42;;
14181;SDS011;7171;50.936;6.764;2023-09-12T03:39:22;5.93;;;3.40;;
14181;SDS011;7171;50.936;6.764;2023-09-12T03:41:49;6.63;;;3.42;;
14181;SDS011;7171;50.936;6.764;2023-09-12T03:44:17;7.25;;;3.33;;
14181;SDS011;7171;50.936;6.764;2023-09-12T03:46:43;5.90;;;3.50;;
14181;SDS011;7171;50.936;6.764;2023-09-12T03:49:10;6.07;;;3.58;;
14181;SDS011;7171;50.936;6.764;2023-09-12T03:51:37;6.32;;;3.53;;
14181;SDS011;7171;50.936;6.764;2023-09-12T03:54:04;5.70;;;3.10;;
14181;SDS011;7171;50.936;6.764;2023-09-12T03:56:30;6.95;;;2.70;;
14181;SDS011;7171;50.936;6.764;2023-09-12T03:58:57;5.43;;;2.80;;
14181;SDS011;7171;50.936;6.764;2023-09-12T04:01:26;6.38;;;3.75;;
14181;SDS011;7171;50.936;6.764;2023-09-12T04:03:53;4.32;;;2.83;;
14181;SDS011;7171;50.936;6.764;2023-09-12T04:06:19;4.75;;;3.05;;
14181;SDS011;7171;50.936;6.764;2023-09-12T04:08:46;4.70;;;2.53;;
14181;SDS011;7171;50.936;6.764;2023-09-12T04:11:13;4.57;;;2.63;;
14181;SDS011;7171;50.936;6.764;2023-09-12T04:13:39;5.10;;;3.33;;
14181;SDS011;7171;50.936;6.764;2023-09-12T04:16:06;6.78;;;3.10;;
14181;SDS011;7171;50.936;6.764;2023-09-12T04:18:34;5.78;;;3.15;;
14181;SDS011;7171;50.936;6.764;2023-09-12T04:21:01;5.28;;;3.30;;
14181;SDS011;7171;50.936;6.764;2023-09-12T04:23:28;6.95;;;3.38;;
14181;SDS011;7171;50.936;6.764;2023-09-12T04:25:55;4.55;;;3.22;;
14181;SDS011;7171;50.936;6.764;2023-09-12T04:28:21;5.45;;;3.28;;
14181;SDS011;7171;50.936;6.764;2023-09-12T04:30:51;3.75;;;2.72;;
14181;SDS011;7171;50.936;6.764;2023-09-12T04:33:18;8.40;;;3.20;;
14181;SDS011;7171;50.936;6.764;2023-09-12T04:35:46;5.68;;;3.08;;
14181;SDS011;7171;50.936;6.764;2023-09-12T04:38:12;5.07;;;2.85;;
14181;SDS011;7171;50.936;6.764;2023-09-12T04:40:39;3.95;;;2.95;;
14181;SDS011;7171;50.936;6.764;2023-09-12T04:43:06;4.68;;;2.50;;
14181;SDS011;7171;50.936;6.764;2023-09-12T04:45:32;5.07;;;3.28;;
14181;SDS011;7171;50.936;6.764;2023-09-12T04:47:59;4.05;;;2.78;;
14181;SDS011;7171;50.936;6.764;2023-09-12T04:50:26;4.13;;;2.97;;
14181;SDS011;7171;50.936;6.764;2023-09-12T04:52:54;5.40;;;2.67;;
14181;SDS011;7171;50.936;6.764;2023-09-12T04:55:20;5.75;;;2.88;;
14181;SDS011;7171;50.936;6.764;2023-09-12T04:57:47;3.88;;;2.30;;
14181;SDS011;7171;50.936;6.764;2023-09-12T05:00:14;4.53;;;2.88;;
14181;SDS011;7171;50.936;6.764;2023-09-12T05:02:41;4.72;;;2.70;;
14181;SDS011;7171;50.936;6.764;2023-09-12T05:05:08;3.83;;;2.60;;
14181;SDS011;7171;50.936;6.764;2023-09-12T05:07:35;5.15;;;2.10;;
14181;SDS011;7171;50.936;6.764;2023-09-12T05:10:03;3.90;;;2.35;;
14181;SDS011;7171;50.936;6.764;2023-09-12T05:12:30;2.65;;;2.17;;
14181;SDS011;7171;50.936;6.764;2023-09-12T05:14:57;4.18;;;2.50;;
14181;SDS011;7171;50.936;6.764;2023-09-12T05:17:24;4.93;;;2.40;;
14181;SDS011;7171;50.936;6.764;2023-09-12T05:19:50;2.72;;;1.95;;
14181;SDS011;7171;50.936;6.764;2023-09-12T05:22:18;2.72;;;2.22;;
14181;SDS011;7171;50.936;6.764;2023-09-12T05:24:45;2.88;;;1.75;;
14181;SDS011;7171;50.936;6.764;2023-09-12T05:27:13;4.07;;;2.05;;
14181;SDS011;7171;50.936;6.764;2023-09-12T05:29:40;2.70;;;2.08;;
14181;SDS011;7171;50.936;6.764;2023-09-12T05:32:06;3.42;;;2.40;;
14181;SDS011;7171;50.936;6.764;2023-09-12T05:34:33;3.75;;;2.15;;
14181;SDS011;7171;50.936;6.764;2023-09-12T05:37:00;4.15;;;2.55;;
14181;SDS011;7171;50.936;6.764;2023-09-12T05:39:27;3.38;;;2.45;;
14181;SDS011;7171;50.936;6.764;2023-09-12T05:41:54;5.88;;;2.85;;
14181;SDS011;7171;50.936;6.764;2023-09-12T05:44:22;3.47;;;2.45;;
14181;SDS011;7171;50.936;6.764;2023-09-12T05:46:48;7.00;;;2.60;;
14181;SDS011;7171;50.936;6.764;2023-09-12T05:49:15;4.53;;;2.70;;
14181;SDS011;7171;50.936;6.764;2023-09-12T05:51:42;3.25;;;2.28;;
14181;SDS011;7171;50.936;6.764;2023-09-12T05:54:09;5.47;;;2.85;;
14181;SDS011;7171;50.936;6.764;2023-09-12T05:56:36;4.00;;;2.20;;
14181;SDS011;7171;50.936;6.764;2023-09-12T05:59:03;5.13;;;2.15;;
14181;SDS011;7171;50.936;6.764;2023-09-12T06:01:31;4.97;;;2.40;;
14181;SDS011;7171;50.936;6.764;2023-09-12T06:03:58;3.75;;;2.22;;
14181;SDS011;7171;50.936;6.764;2023-09-12T06:06:25;3.15;;;2.13;;
14181;SDS011;7171;50.936;6.764;2023-09-12T06:08:52;4.53;;;2.60;;
14181;SDS011;7171;50.936;6.764;2023-09-12T06:11:18;4.75;;;3.35;;
14181;SDS011;7171;50.936;6.764;2023-09-12T06:13:45;18.65;;;4.22;;
14181;SDS011;7171;50.936;6.764;2023-09-12T06:16:12;5.72;;;2.95;;
14181;SDS011;7171;50.936;6.764;2023-09-12T06:18:40;6.07;;;3.38;;
14181;SDS011;7171;50.936;6.764;2023-09-12T06:21:06;9.00;;;4.43;;
14181;SDS011;7171;50.936;6.764;2023-09-12T06:23:34;7.97;;;3.92;;
14181;SDS011;7171;50.936;6.764;2023-09-12T06:26:00;5.20;;;3.35;;
14181;SDS011;7171;50.936;6.764;2023-09-12T06:28:28;5.38;;;3.38;;
14181;SDS011;7171;50.936;6.764;2023-09-12T06:30:56;8.98;;;3.80;;
14181;SDS011;7171;50.936;6.764;2023-09-12T06:33:24;7.07;;;3.33;;
14181;SDS011;7171;50.936;6.764;2023-09-12T06:35:52;5.00;;;3.30;;
14181;SDS011;7171;50.936;6.764;2023-09-12T06:38:19;6.88;;;3.85;;
14181;SDS011;7171;50.936;6.764;2023-09-12T06:40:46;5.75;;;3.75;;
14181;SDS011;7171;50.936;6.764;2023-09-12T06:43:13;4.97;;;3.22;;
14181;SDS011;7171;50.936;6.764;2023-09-12T06:45:40;7.60;;;3.45;;
14181;SDS011;7171;50.936;6.764;2023-09-12T06:48:07;7.15;;;3.65;;
14181;SDS011;7171;50.936;6.764;2023-09-12T06:50:34;7.03;;;3.75;;
14181;SDS011;7171;50.936;6.764;2023-09-12T06:53:04;7.65;;;3.90;;
14181;SDS011;7171;50.936;6.764;2023-09-12T06:55:32;3.97;;;3.05;;
14181;SDS011;7171;50.936;6.764;2023-09-12T06:57:59;4.68;;;3.20;;
14181;SDS011;7171;50.936;6.764;2023-09-12T07:00:25;3.83;;;3.15;;
14181;SDS011;7171;50.936;6.764;2023-09-12T07:02:52;6.10;;;3.28;;
14181;SDS011;7171;50.936;6.764;2023-09-12T07:05:19;4.82;;;3.20;;
14181;SDS011;7171;50.936;6.764;2023-09-12T07:07:46;5.65;;;2.83;;
14181;SDS011;7171;50.936;6.764;2023-09-12T07:10:14;6.63;;;3.05;;
14181;SDS011;7171;50.936;6.764;2023-09-12T07:12:41;4.68;;;2.80;;
14181;SDS011;7171;50.936;6.764;2023-09-12T07:15:07;4.68;;;2.80;;
14181;SDS011;7171;50.936;6.764;2023-09-12T07:17:34;5.00;;;3.22;;
14181;SDS011;7171;50.936;6.764;2023-09-12T07:20:01;4.82;;;3.10;;
14181;SDS011;7171;50.936;6.764;2023-09-12T07:22:29;5.78;;;2.85;;
14181;SDS011;7171;50.936;6.764;2023-09-12T07:24:59;4.82;;;3.17;;
14181;SDS011;7171;50.936;6.764;2023-09-12T07:27:27;5.28;;;3.53;;
14181;SDS011;7171;50.936;6.764;2023-09-12T07:29:54;6.03;;;3.42;;
14181;SDS011;7171;50.936;6.764;2023-09-12T07:32:21;4.68;;;3.22;;
14181;SDS011;7171;50.936;6.764;2023-09-12T07:34:49;3.85;;;3.25;;
14181;SDS011;7171;50.936;6.764;2023-09-12T07:37:16;5.38;;;3.13;;
14181;SDS011;7171;50.936;6.764;2023-09-12T07:39:42;5.25;;;2.95;;
14181;SDS011;7171;50.936;6.764;2023-09-12T07:42:09;3.90;;;2.92;;
14181;SDS011;7171;50.936;6.764;2023-09-12T07:44:37;4.38;;;2.45;;
14181;SDS011;7171;50.936;6.764;2023-09-12T07:47:04;4.53;;;2.80;;
14181;SDS011;7171;50.936;6.764;2023-09-12T07:49:31;4.40;;;3.10;;
14181;SDS011;7171;50.936;6.764;2023-09-12T07:51:57;4.43;;;3.13;;
14181;SDS011;7171;50.936;6.764;2023-09-12T07:54:24;4.85;;;3.00;;
14181;SDS011;7171;50.936;6.764;2023-09-12T07:56:51;4.47;;;2.80;;
14181;SDS011;7171;50.936;6.764;2023-09-12T07:59:18;3.90;;;2.70;;
14181;SDS011;7171;50.936;6.764;2023-09-12T08:01:46;3.28;;;2.97;;
14181;SDS011;7171;50.936;6.764;2023-09-12T08:04:12;3.60;;;2.63;;
14181;SDS011;7171;50.936;6.764;2023-09-12T08:06:39;6.72;;;3.20;;
14181;SDS011;7171;50.936;6.764;2023-09-12T08:09:06;5.70;;;2.85;;
14181;SDS011;7171;50.936;6.764;2023-09-12T08:11:33;3.38;;;2.20;;
14181;SDS011;7171;50.936;6.764;2023-09-12T08:14:00;3.17;;;2.20;;
14181;SDS011;7171;50.936;6.764;2023-09-12T08:16:26;3.65;;;2.30;;
14181;SDS011;7171;50.936;6.764;2023-09-12T08:18:54;5.65;;;2.55;;
14181;SDS011;7171;50.936;6.764;2023-09-12T08:21:21;3.17;;;2.05;;
14181;SDS011;7171;50.936;6.764;2023-09-12T08:23:48;2.55;;;1.75;;
14181;SDS011;7171;50.936;6.764;2023-09-12T08:26:14;2.80;;;1.92;;
14181;SDS011;7171;50.936;6.764;2023-09-12T08:28:41;2.25;;;1.83;;
14181;SDS011;7171;50.936;6.764;2023-09-12T08:31:08;2.65;;;1.80;;
14181;SDS011;7171;50.936;6.764;2023-09-12T08:33:35;2.53;;;1.90;;
14181;SDS011;7171;50.936;6.764;2023-09-12T08:36:03;2.42;;;1.92;;
14181;SDS011;7171;50.936;6.764;2023-09-12T08:38:30;3.17;;;1.90;;
14181;SDS011;7171;50.936;6.764;2023-09-12T08:40:56;2.30;;;1.90;;
14181;SDS011;7171;50.936;6.764;2023-09-12T08:43:23;3.92;;;2.22;;
14181;SDS011;7171;50.936;6.764;2023-09-12T08:45:51;3.22;;;2.13;;
14181;SDS011;7171;50.936;6.764;2023-09-12T08:48:18;2.45;;;1.70;;
14181;SDS011;7171;50.936;6.764;2023-09-12T08:50:46;2.90;;;1.83;;
14181;SDS011;7171;50.936;6.764;2023-09-12T08:53:16;2.90;;;1.67;;
14181;SDS011;7171;50.936;6.764;2023-09-12T08:55:47;3.00;;;1.80;;
14181;SDS011;7171;50.936;6.764;2023-09-12T08:58:14;2.38;;;1.73;;
14181;SDS011;7171;50.936;6.764;2023-09-12T09:00:41;3.30;;;1.60;;
14181;SDS011;7171;50.936;6.764;2023-09-12T09:03:08;2.05;;;1.85;;
14181;SDS011;7171;50.936;6.764;2023-09-12T09:05:36;2.63;;;1.85;;
14181;SDS011;7171;50.936;6.764;2023-09-12T09:08:04;2.30;;;1.98;;
14181;SDS011;7171;50.936;6.764;2023-09-12T09:10:32;2.38;;;1.70;;
14181;SDS011;7171;50.936;6.764;2023-09-12T09:12:59;2.72;;;1.85;;
14181;SDS011;7171;50.936;6.764;2023-09-12T09:15:26;2.88;;;1.75;;
14181;SDS011;7171;50.936;6.764;2023-09-12T09:17:55;5.88;;;2.05;;
14181;SDS011;7171;50.936;6.764;2023-09-12T09:20:23;2.53;;;1.77;;
14181;SDS011;7171;50.936;6.764;2023-09-12T09:22:56;2.33;;;1.73;;
14181;SDS011;7171;50.936;6.764;2023-09-12T09:25:23;2.00;;;1.67;;
14181;SDS011;7171;50.936;6.764;2023-09-12T09:27:52;1.38;;;1.27;;
14181;SDS011;7171;50.936;6.764;2023-09-12T09:30:18;2.20;;;1.77;;
14181;SDS011;7171;50.936;6.764;2023-09-12T09:32:50;2.92;;;2.10;;
14181;SDS011;7171;50.936;6.764;2023-09-12T09:35:20;3.00;;;2.38;;
14181;SDS011;7171;50.936;6.764;2023-09-12T09:37:47;2.65;;;1.90;;
14181;SDS011;7171;50.936;6.764;2023-09-12T09:40:14;3.70;;;1.60;;
14181;SDS011;7171;50.936;6.764;2023-09-12T09:42:41;1.73;;;1.63;;
14181;SDS011;7171;50.936;6.764;2023-09-12T09:45:10;2.85;;;2.00;;
14181;SDS011;7171;50.936;6.764;2023-09-12T09:47:37;2.15;;;1.95;;
14181;SDS011;7171;50.936;6.764;2023-09-12T09:50:04;1.98;;;1.77;;
14181;SDS011;7171;50.936;6.764;2023-09-12T09:52:31;2.58;;;1.88;;
14181;SDS011;7171;50.936;6.764;2023-09-12T09:54:58;2.67;;;1.98;;
14181;SDS011;7171;50.936;6.764;2023-09-12T09:57:26;3.88;;;1.90;;
14181;SDS011;7171;50.936;6.764;2023-09-12T09:59:52;2.03;;;1.75;;
14181;SDS011;7171;50.936;6.764;2023-09-12T10:02:21;1.65;;;1.50;;
14181;SDS011;7171;50.936;6.764;2023-09-12T10:04:51;2.35;;;1.98;;
14181;SDS011;7171;50.936;6.764;2023-09-12T10:07:19;3.92;;;2.00;;
14181;SDS011;7171;50.936;6.764;2023-09-12T10:09:47;1.98;;;1.45;;
14181;SDS011;7171;50.936;6.764;2023-09-12T10:12:14;2.03;;;1.55;;
14181;SDS011;7171;50.936;6.764;2023-09-12T10:14:41;3.25;;;2.17;;
14181;SDS011;7171;50.936;6.764;2023-09-12T10:17:10;1.60;;;1.40;;
14181;SDS011;7171;50.936;6.764;2023-09-12T10:19:43;2.13;;;1.65;;
14181;SDS011;7171;50.936;6.764;2023-09-12T10:22:12;2.92;;;1.65;;
14181;SDS011;7171;50.936;6.764;2023-09-12T10:24:43;2.92;;;1.50;;
14181;SDS011;7171;50.936;6.764;2023-09-12T10:27:15;2.85;;;1.58;;
14181;SDS011;7171;50.936;6.764;2023-09-12T10:29:44;2.03;;;1.52;;
14181;SDS011;7171;50.936;6.764;2023-09-12T10:32:14;2.05;;;1.77;;
14181;SDS011;7171;50.936;6.764;2023-09-12T10:34:44;1.73;;;1.33;;
14181;SDS011;7171;50.936;6.764;2023-09-12T10:37:15;1.85;;;1.33;;
14181;SDS011;7171;50.936;6.764;2023-09-12T10:39:42;1.55;;;1.27;;
14181;SDS011;7171;50.936;6.764;2023-09-12T10:42:09;1.75;;;1.38;;
14181;SDS011;7171;50.936;6.764;2023-09-12T10:44:38;1.65;;;1.25;;
14181;SDS011;7171;50.936;6.764;2023-09-12T10:47:05;1.30;;;1.20;;
14181;SDS011;7171;50.936;6.764;2023-09-12T10:49:32;1.30;;;1.20;;
14181;SDS011;7171;50.936;6.764;2023-09-12T10:52:00;1.67;;;1.58;;
14181;SDS011;7171;50.936;6.764;2023-09-12T10:54:35;1.60;;;1.25;;
14181;SDS011;7171;50.936;6.764;2023-09-12T10:57:03;1.75;;;1.42;;
14181;SDS011;7171;50.936;6.764;2023-09-12T10:59:30;2.13;;;1.60;;
14181;SDS011;7171;50.936;6.764;2023-09-12T11:04:54;2.42;;;1.90;;
14181;SDS011;7171;50.936;6.764;2023-09-12T11:07:33;1.30;;;1.20;;
14181;SDS011;7171;50.936;6.764;2023-09-12T11:10:17;1.40;;;1.30;;
14181;SDS011;7171;50.936;6.764;2023-09-12T11:12:48;2.95;;;1.98;;
14181;SDS011;7171;50.936;6.764;2023-09-12T11:15:15;2.22;;;1.50;;
14181;SDS011;7171;50.936;6.764;2023-09-12T11:17:43;2.22;;;1.45;;
14181;SDS011;7171;50.936;6.764;2023-09-12T11:20:11;2.30;;;1.75;;
14181;SDS011;7171;50.936;6.764;2023-09-12T11:22:41;2.28;;;1.70;;
14181;SDS011;7171;50.936;6.764;2023-09-12T11:25:17;1.42;;;1.30;;
14181;SDS011;7171;50.936;6.764;2023-09-12T11:27:45;3.35;;;1.63;;
14181;SDS011;7171;50.936;6.764;2023-09-12T11:30:29;2.53;;;1.70;;
14181;SDS011;7171;50.936;6.764;2023-09-12T11:32:56;4.10;;;1.83;;
14181;SDS011;7171;50.936;6.764;2023-09-12T11:35:25;2.35;;;1.60;;
14181;SDS011;7171;50.936;6.764;2023-09-12T11:37:55;3.00;;;1.52;;
14181;SDS011;7171;50.936;6.764;2023-09-12T11:40:23;2.53;;;1.80;;
14181;SDS011;7171;50.936;6.764;2023-09-12T11:42:52;2.95;;;2.10;;
14181;SDS011;7171;50.936;6.764;2023-09-12T11:45:19;2.50;;;1.70;;
14181;SDS011;7171;50.936;6.764;2023-09-12T11:47:48;3.53;;;2.20;;
14181;SDS011;7171;50.936;6.764;2023-09-12T11:50:28;1.90;;;1.70;;
14181;SDS011;7171;50.936;6.764;2023-09-12T11:53:03;1.85;;;1.52;;
14181;SDS011;7171;50.936;6.764;2023-09-12T11:55:31;3.03;;;2.13;;
14181;SDS011;7171;50.936;6.764;2023-09-12T11:57:58;2.72;;;1.92;;
14181;SDS011;7171;50.936;6.764;2023-09-12T12:00:25;2.83;;;1.92;;
14181;SDS011;7171;50.936;6.764;2023-09-12T12:02:53;4.72;;;2.00;;
14181;SDS011;7171;50.936;6.764;2023-09-12T12:05:20;2.97;;;1.58;;
14181;SDS011;7171;50.936;6.764;2023-09-12T12:07:47;2.35;;;1.90;;
14181;SDS011;7171;50.936;6.764;2023-09-12T12:10:16;2.55;;;1.65;;
14181;SDS011;7171;50.936;6.764;2023-09-12T12:12:43;2.30;;;1.52;;
14181;SDS011;7171;50.936;6.764;2023-09-12T12:15:11;2.15;;;1.85;;
14181;SDS011;7171;50.936;6.764;2023-09-12T12:17:38;3.05;;;2.20;;
14181;SDS011;7171;50.936;6.764;2023-09-12T12:20:07;2.17;;;1.88;;
14181;SDS011;7171;50.936;6.764;2023-09-12T12:22:35;1.83;;;1.45;;
14181;SDS011;7171;50.936;6.764;2023-09-12T12:25:05;2.20;;;1.55;;
14181;SDS011;7171;50.936;6.764;2023-09-12T12:27:36;2.58;;;1.70;;
14181;SDS011;7171;50.936;6.764;2023-09-12T12:30:04;3.65;;;2.42;;
14181;SDS011;7171;50.936;6.764;2023-09-12T12:32:32;3.75;;;2.03;;
14181;SDS011;7171;50.936;6.764;2023-09-12T12:34:59;2.03;;;1.75;;
14181;SDS011;7171;50.936;6.764;2023-09-12T12:37:28;4.55;;;1.90;;
14181;SDS011;7171;50.936;6.764;2023-09-12T12:39:56;1.95;;;1.67;;
14181;SDS011;7171;50.936;6.764;2023-09-12T12:42:23;2.65;;;1.88;;
14181;SDS011;7171;50.936;6.764;2023-09-12T12:44:53;3.55;;;2.20;;
14181;SDS011;7171;50.936;6.764;2023-09-12T12:47:20;3.05;;;2.17;;
14181;SDS011;7171;50.936;6.764;2023-09-12T12:49:50;2.67;;;2.10;;
14181;SDS011;7171;50.936;6.764;2023-09-12T12:52:21;4.32;;;2.10;;
14181;SDS011;7171;50.936;6.764;2023-09-12T12:54:48;5.50;;;2.88;;
14181;SDS011;7171;50.936;6.764;2023-09-12T12:57:18;4.45;;;2.72;;
14181;SDS011;7171;50.936;6.764;2023-09-12T12:59:45;3.95;;;2.15;;
14181;SDS011;7171;50.936;6.764;2023-09-12T13:02:13;2.95;;;2.40;;
14181;SDS011;7171;50.936;6.764;2023-09-12T13:04:40;3.70;;;2.50;;
14181;SDS011;7171;50.936;6.764;2023-09-12T13:07:07;4.72;;;2.17;;
14181;SDS011;7171;50.936;6.764;2023-09-12T13:09:35;4.68;;;2.15;;
14181;SDS011;7171;50.936;6.764;2023-09-12T13:12:03;3.25;;;2.05;;
14181;SDS011;7171;50.936;6.764;2023-09-12T13:14:31;2.88;;;2.25;;
14181;SDS011;7171;50.936;6.764;2023-09-12T13:16:57;3.15;;;2.50;;
14181;SDS011;7171;50.936;6.764;2023-09-12T13:19:26;3.50;;;2.38;;
14181;SDS011;7171;50.936;6.764;2023-09-12T13:21:53;3.15;;;2.22;;
14181;SDS011;7171;50.936;6.764;2023-09-12T13:24:19;2.65;;;1.80;;
14181;SDS011;7171;50.936;6.764;2023-09-12T13:26:46;5.32;;;2.08;;
14181;SDS011;7171;50.936;6.764;2023-09-12T13:29:13;2.28;;;1.70;;
14181;SDS011;7171;50.936;6.764;2023-09-12T13:31:39;3.53;;;1.67;;
14181;SDS011;7171;50.936;6.764;2023-09-12T13:34:06;3.05;;;2.33;;
14181;SDS011;7171;50.936;6.764;2023-09-12T13:36:34;3.45;;;1.67;;
14181;SDS011;7171;50.936;6.764;2023-09-12T13:39:01;3.05;;;2.20;;
14181;SDS011;7171;50.936;6.764;2023-09-12T13:41:29;2.50;;;2.05;;
14181;SDS011;7171;50.936;6.764;2023-09-12T13:43:55;3.03;;;1.80;;
14181;SDS011;7171;50.936;6.764;2023-09-12T13:46:22;2.97;;;1.92;;
14181;SDS011;7171;50.936;6.764;2023-09-12T13:48:49;2.17;;;1.67;;
14181;SDS011;7171;50.936;6.764;2023-09-12T13:51:16;2.13;;;1.88;;
14181;SDS011;7171;50.936;6.764;2023-09-12T13:53:44;3.60;;;2.10;;
14181;SDS011;7171;50.936;6.764;2023-09-12T13:56:10;2.00;;;1.60;;
14181;SDS011;7171;50.936;6.764;2023-09-12T13:58:37;4.10;;;2.13;;
14181;SDS011;7171;50.936;6.764;2023-09-12T14:01:04;2.08;;;1.73;;
14181;SDS011;7171;50.936;6.764;2023-09-12T14:03:30;3.80;;;2.35;;
14181;SDS011;7171;50.936;6.764;2023-09-12T14:05:57;3.28;;;2.00;;
14181;SDS011;7171;50.936;6.764;2023-09-12T14:08:24;3.05;;;2.38;;
14181;SDS011;7171;50.936;6.764;2023-09-12T14:10:52;2.15;;;1.67;;
14181;SDS011;7171;50.936;6.764;2023-09-12T14:13:19;3.00;;;2.10;;
14181;SDS011;7171;50.936;6.764;2023-09-12T14:15:46;4.57;;;2.30;;
14181;SDS011;7171;50.936;6.764;2023-09-12T14:18:14;2.92;;;2.40;;
14181;SDS011;7171;50.936;6.764;2023-09-12T14:20:41;2.28;;;1.77;;
14181;SDS011;7171;50.936;6.764;2023-09-12T14:23:08;5.45;;;2.20;;
14181;SDS011;7171;50.936;6.764;2023-09-12T14:25:35;3.15;;;1.70;;
14181;SDS011;7171;50.936;6.764;2023-09-12T14:28:03;3.00;;;2.17;;
14181;SDS011;7171;50.936;6.764;2023-09-12T14:30:31;3.17;;;2.00;;
14181;SDS011;7171;50.936;6.764;2023-09-12T14:33:00;4.05;;;2.15;;
14181;SDS011;7171;50.936;6.764;2023-09-12T14:35:27;4.55;;;1.90;;
14181;SDS011;7171;50.936;6.764;2023-09-12T14:37:54;2.45;;;2.25;;
14181;SDS011;7171;50.936;6.764;2023-09-12T14:40:21;3.08;;;2.10;;
14181;SDS011;7171;50.936;6.764;2023-09-12T14:42:49;4.15;;;2.53;;
14181;SDS011;7171;50.936;6.764;2023-09-12T14:45:17;3.10;;;1.90;;
14181;SDS011;7171;50.936;6.764;2023-09-12T14:47:44;3.03;;;2.15;;
14181;SDS011;7171;50.936;6.764;2023-09-12T14:50:11;4.28;;;2.28;;
14181;SDS011;7171;50.936;6.764;2023-09-12T14:52:38;4.13;;;2.42;;
14181;SDS011;7171;50.936;6.764;2023-09-12T14:55:05;3.22;;;2.00;;
14181;SDS011;7171;50.936;6.764;2023-09-12T14:57:33;2.90;;;2.28;;
14181;SDS011;7171;50.936;6.764;2023-09-12T15:00:00;4.55;;;2.25;;
14181;SDS011;7171;50.936;6.764;2023-09-12T15:02:29;2.10;;;1.70;;
14181;SDS011;7171;50.936;6.764;2023-09-12T15:04:57;3.83;;;2.03;;
14181;SDS011;7171;50.936;6.764;2023-09-12T15:07:24;3.15;;;1.90;;
14181;SDS011;7171;50.936;6.764;2023-09-12T15:09:50;3.00;;;1.98;;